createdAt,value
2023-02-14T00:01:52.471Z,96757
2023-02-14T00:05:17.649Z,96754
2023-02-14T00:08:42.821Z,96758
2023-02-14T00:12:07.973Z,96751
2023-02-14T00:15:33.182Z,96749
2023-02-14T00:18:58.329Z,96753
2023-02-14T00:22:23.487Z,96752
2023-02-14T00:25:48.640Z,96759
2023-02-14T00:29:13.824Z,96751
2023-02-14T00:32:39.080Z,96743
2023-02-14T00:36:04.144Z,96753
2023-02-14T00:39:29.306Z,96760
2023-02-14T00:42:54.461Z,96758
2023-02-14T00:46:19.641Z,96755
2023-02-14T00:49:44.836Z,96755
2023-02-14T00:53:09.989Z,96761
2023-02-14T00:56:35.167Z,96763
2023-02-14T01:00:00.339Z,96766
2023-02-14T01:03:25.480Z,96766
2023-02-14T01:06:50.698Z,96762
2023-02-14T01:10:15.835Z,96760
2023-02-14T01:13:41.026Z,96757
2023-02-14T01:17:06.188Z,96764
2023-02-14T01:20:32.572Z,96764
2023-02-14T01:23:57.799Z,96764
2023-02-14T01:27:22.930Z,96761
2023-02-14T01:30:48.158Z,96762
2023-02-14T01:34:13.298Z,96757
2023-02-14T01:37:38.473Z,96750
2023-02-14T01:41:03.668Z,96749
2023-02-14T01:44:28.799Z,96746
2023-02-14T01:47:53.977Z,96736
2023-02-14T01:51:19.195Z,96738
2023-02-14T01:54:44.375Z,96739
2023-02-14T01:58:09.581Z,96738
2023-02-14T02:01:34.805Z,96739
2023-02-14T02:04:59.900Z,96737
2023-02-14T02:08:25.100Z,96735
2023-02-14T02:11:50.272Z,96729
2023-02-14T02:15:15.639Z,96732
2023-02-14T02:18:40.592Z,96737
2023-02-14T02:22:05.768Z,96740
2023-02-14T02:25:30.932Z,96740
2023-02-14T02:28:56.927Z,96737
2023-02-14T02:32:22.131Z,96733
2023-02-14T02:35:47.282Z,96735
2023-02-14T02:39:12.448Z,96723
2023-02-14T02:42:37.650Z,96719
2023-02-14T02:46:02.834Z,96724
2023-02-14T02:49:28.026Z,96721
2023-02-14T02:52:53.183Z,96712
2023-02-14T02:56:18.389Z,96712
2023-02-14T02:59:43.564Z,96718
2023-02-14T03:03:08.768Z,96715
2023-02-14T03:06:33.955Z,96707
2023-02-14T03:09:59.110Z,96708
2023-02-14T03:13:24.282Z,96716
2023-02-14T03:16:49.474Z,96709
2023-02-14T03:20:14.657Z,96710
2023-02-14T03:23:39.851Z,96711
2023-02-14T03:27:04.996Z,96716
2023-02-14T03:30:30.282Z,96719
2023-02-14T03:33:55.360Z,96718
2023-02-14T03:37:20.567Z,96722
2023-02-14T03:40:45.755Z,96719
2023-02-14T03:44:10.887Z,96713
2023-02-14T03:47:36.055Z,96715
2023-02-14T03:51:01.447Z,96709
2023-02-14T03:54:26.369Z,96710
2023-02-14T03:57:51.569Z,96710
2023-02-14T04:01:17.018Z,96709
2023-02-14T04:04:42.159Z,96718
2023-02-14T04:08:07.350Z,96711
2023-02-14T04:11:32.542Z,96710
2023-02-14T04:14:57.723Z,96707
2023-02-14T04:18:22.879Z,96715
2023-02-14T04:21:48.036Z,96715
2023-02-14T04:25:13.205Z,96714
2023-02-14T04:28:38.365Z,96714
2023-02-14T04:32:03.747Z,96721
2023-02-14T04:35:28.718Z,96713
2023-02-14T04:38:53.893Z,96712
2023-02-14T04:42:19.066Z,96709
2023-02-14T04:45:44.236Z,96707
2023-02-14T04:49:09.434Z,96710
2023-02-14T04:52:34.582Z,96701
2023-02-14T04:55:59.758Z,96700
2023-02-14T04:59:25.239Z,96702
2023-02-14T05:02:50.121Z,96705
2023-02-14T05:06:15.316Z,96702
2023-02-14T05:09:40.461Z,96695
2023-02-14T05:13:05.611Z,96699
2023-02-14T05:16:30.840Z,96697
2023-02-14T05:19:55.975Z,96695
2023-02-14T05:23:21.186Z,96697
2023-02-14T05:26:46.326Z,96705
2023-02-14T05:30:11.526Z,96700
2023-02-14T05:33:36.670Z,96700
2023-02-14T05:37:01.861Z,96701
2023-02-14T05:43:44.984Z,96698
2023-02-14T05:47:12.159Z,96701
2023-02-14T05:50:35.307Z,96697
2023-02-14T05:54:00.466Z,96699
2023-02-14T05:57:25.642Z,96701
2023-02-14T06:00:50.859Z,96701
2023-02-14T06:04:16.086Z,96700
2023-02-14T06:07:41.275Z,96701
2023-02-14T06:11:06.561Z,96705
2023-02-14T06:14:31.791Z,96708
2023-02-14T06:17:57.029Z,96706
2023-02-14T06:21:22.176Z,96711
2023-02-14T06:24:47.349Z,96706
2023-02-14T06:28:12.560Z,96711
2023-02-14T06:31:37.875Z,96715
2023-02-14T06:35:03.042Z,96706
2023-02-14T06:38:28.224Z,96706
2023-02-14T06:41:53.415Z,96707
2023-02-14T06:45:18.648Z,96707
2023-02-14T06:48:43.858Z,96712
2023-02-14T06:52:09.121Z,96710
2023-02-14T06:55:34.378Z,96708
2023-02-14T06:58:59.628Z,96707
2023-02-14T07:02:25.226Z,96705
2023-02-14T07:05:50.007Z,96702
2023-02-14T07:09:16.759Z,96694
2023-02-14T07:12:44.015Z,96692
2023-02-14T07:16:09.308Z,96689
2023-02-14T07:19:34.499Z,96687
2023-02-14T07:22:59.727Z,96684
2023-02-14T07:26:24.956Z,96683
2023-02-14T07:29:50.174Z,96684
2023-02-14T07:33:15.371Z,96684
2023-02-14T07:36:40.556Z,96688
2023-02-14T07:40:14.498Z,96686
2023-02-14T07:43:34.322Z,96687
2023-02-14T07:47:00.093Z,96680
2023-02-14T07:50:25.259Z,96674
2023-02-14T07:53:50.465Z,96675
2023-02-14T07:57:15.648Z,96674
2023-02-14T08:00:40.884Z,96665
2023-02-14T08:04:06.080Z,96665
2023-02-14T08:07:31.301Z,96656
2023-02-14T08:10:56.514Z,96658
2023-02-14T08:14:21.722Z,96656
2023-02-14T08:17:46.935Z,96655
2023-02-14T08:21:12.089Z,96646
2023-02-14T08:24:37.284Z,96644
2023-02-14T08:28:02.526Z,96645
2023-02-14T08:31:34.975Z,96645
2023-02-14T08:34:53.028Z,96649
2023-02-14T08:38:18.223Z,96649
2023-02-14T08:41:43.436Z,96648
2023-02-14T08:45:08.683Z,96640
2023-02-14T08:48:33.898Z,96644
2023-02-14T08:51:59.119Z,96644
2023-02-14T08:55:24.310Z,96643
2023-02-14T08:58:49.557Z,96638
2023-02-14T09:02:14.773Z,96641
2023-02-14T09:05:39.996Z,96643
2023-02-14T09:09:05.255Z,96634
2023-02-14T09:12:30.430Z,96633
2023-02-14T09:15:55.660Z,96639
2023-02-14T09:19:21.495Z,96644
2023-02-14T09:22:48.712Z,96635
2023-02-14T09:26:12.018Z,96640
2023-02-14T09:29:37.210Z,96640
2023-02-14T09:33:02.413Z,96638
2023-02-14T09:36:27.661Z,96644
2023-02-14T09:39:52.875Z,96636
2023-02-14T09:43:18.100Z,96633
2023-02-14T09:46:43.262Z,96627
2023-02-14T09:50:08.503Z,96627
2023-02-14T09:53:33.694Z,96630
2023-02-14T09:56:58.907Z,96626
2023-02-14T10:00:24.111Z,96630
2023-02-14T10:03:49.268Z,96630
2023-02-14T10:07:14.451Z,96631
2023-02-14T10:10:39.865Z,96629
2023-02-14T10:14:04.954Z,96630
2023-02-14T10:17:30.221Z,96623
2023-02-14T10:20:55.442Z,96620
2023-02-14T10:24:20.621Z,96622
2023-02-14T10:27:45.841Z,96623
2023-02-14T10:31:11.100Z,96615
2023-02-14T10:34:36.388Z,96611
2023-02-14T10:38:01.620Z,96610
2023-02-14T10:41:26.811Z,96603
2023-02-14T10:44:52.054Z,96608
2023-02-14T10:48:17.490Z,96605
2023-02-14T10:51:43.674Z,96602
2023-02-14T10:55:08.868Z,96600
2023-02-14T10:58:34.080Z,96596
2023-02-14T11:01:59.382Z,96602
2023-02-14T11:05:24.585Z,96600
2023-02-14T11:08:49.793Z,96596
2023-02-14T11:12:15.019Z,96598
2023-02-14T11:15:40.203Z,96594
2023-02-14T11:19:05.447Z,96597
2023-02-14T11:22:30.632Z,96592
2023-02-14T11:25:55.835Z,96596
2023-02-14T11:29:21.048Z,96596
2023-02-14T11:32:46.279Z,96593
2023-02-14T11:36:11.512Z,96594
2023-02-14T11:39:38.527Z,96594
2023-02-14T11:43:13.684Z,96588
2023-02-14T11:46:29.028Z,96589
2023-02-14T11:49:56.344Z,96582
2023-02-14T11:53:21.825Z,96577
2023-02-14T11:56:47.184Z,96572
2023-02-14T12:00:12.927Z,96571
2023-02-14T12:03:39.086Z,96569
2023-02-14T12:07:04.708Z,96561
2023-02-14T12:10:36.940Z,96561
2023-02-14T12:14:02.290Z,96552
2023-02-14T12:17:27.611Z,96549
2023-02-14T12:20:52.966Z,96547
2023-02-14T12:24:18.337Z,96545
2023-02-14T12:27:43.749Z,96538
2023-02-14T12:31:09.200Z,96537
2023-02-14T12:34:34.414Z,96534
2023-02-14T12:38:04.569Z,96529
2023-02-14T12:41:25.071Z,96525
2023-02-14T12:44:50.397Z,96520
2023-02-14T12:48:22.338Z,96522
2023-02-14T12:51:47.656Z,96515
2023-02-14T12:55:14.484Z,96511
2023-02-14T12:58:39.820Z,96520
2023-02-14T13:02:05.208Z,96515
2023-02-14T13:05:30.436Z,96514
2023-02-14T13:08:55.755Z,96514
2023-02-14T13:12:21.759Z,96505
2023-02-14T13:15:47.173Z,96496
2023-02-14T13:19:12.712Z,96497
2023-02-14T13:22:38.015Z,96499
2023-02-14T13:26:03.397Z,96498
2023-02-14T13:29:28.848Z,96483
2023-02-14T13:32:54.229Z,96485
2023-02-14T13:36:19.559Z,96480
2023-02-14T13:39:45.009Z,96483
2023-02-14T13:43:10.356Z,96480
2023-02-14T13:46:36.276Z,96475
2023-02-14T13:50:01.576Z,96477
2023-02-14T13:53:27.927Z,96472
2023-02-14T13:56:52.841Z,96470
2023-02-14T14:00:18.229Z,96469
2023-02-14T14:03:43.693Z,96467
2023-02-14T14:07:08.985Z,96470
2023-02-14T14:10:34.339Z,96467
2023-02-14T14:13:59.668Z,96465
2023-02-14T14:17:25.004Z,96467
2023-02-14T14:20:50.300Z,96475
2023-02-14T14:24:15.715Z,96471
2023-02-14T14:27:41.128Z,96471
2023-02-14T14:31:06.449Z,96469
2023-02-14T15:06:53.486Z,96439
2023-02-14T15:10:18.861Z,96442
2023-02-14T15:13:44.418Z,96437
2023-02-14T15:17:09.832Z,96433
2023-02-14T15:20:35.294Z,96432
2023-02-14T15:24:00.693Z,96433
2023-02-14T15:27:26.065Z,96429
2023-02-14T15:30:51.414Z,96431
2023-02-14T15:34:16.626Z,96427
2023-02-14T15:37:41.933Z,96422
2023-02-14T15:41:07.259Z,96423
2023-02-14T15:44:32.561Z,96423
2023-02-14T15:47:57.879Z,96422
2023-02-14T15:51:23.182Z,96421
2023-02-14T15:54:48.472Z,96420
2023-02-14T15:58:13.789Z,96421
2023-02-14T16:01:39.126Z,96414
2023-02-14T16:05:04.387Z,96411
2023-02-14T16:08:29.748Z,96410
2023-02-14T16:11:55.067Z,96416
2023-02-14T16:15:20.252Z,96419
2023-02-14T16:18:45.427Z,96416
2023-02-14T16:22:10.638Z,96422
2023-02-14T16:25:35.841Z,96416
2023-02-14T16:29:01.034Z,96424
2023-02-14T16:32:26.379Z,96419
2023-02-14T16:35:51.529Z,96422
2023-02-14T16:39:16.699Z,96426
2023-02-14T16:42:41.907Z,96432
2023-02-14T16:46:07.109Z,96429
2023-02-14T16:49:32.371Z,96432
2023-02-14T16:52:57.603Z,96430
2023-02-14T16:56:22.824Z,96434
2023-02-14T16:59:48.052Z,96437
2023-02-14T17:03:13.270Z,96443
2023-02-14T17:06:38.475Z,96438
2023-02-14T17:10:03.652Z,96438
2023-02-14T17:13:28.872Z,96441
2023-02-14T17:16:54.141Z,96439
2023-02-14T17:20:19.437Z,96434
2023-02-14T17:23:44.603Z,96440
2023-02-14T17:27:09.795Z,96432
2023-02-14T17:30:35.028Z,96437
2023-02-14T17:34:00.278Z,96443
2023-02-14T17:37:25.492Z,96440
2023-02-14T17:40:50.767Z,96439
2023-02-14T17:44:15.949Z,96446
2023-02-14T17:47:41.174Z,96439
2023-02-14T17:51:06.405Z,96446
2023-02-14T17:54:31.631Z,96446
2023-02-14T17:57:56.811Z,96439
2023-02-14T18:01:22.135Z,96429
2023-02-14T18:04:47.246Z,96430
2023-02-14T18:08:14.493Z,96427
2023-02-14T18:11:43.581Z,96429
2023-02-14T18:15:08.865Z,96429
2023-02-14T18:18:34.083Z,96435
2023-02-14T18:21:59.336Z,96431
2023-02-14T18:25:24.578Z,96429
2023-02-14T18:28:49.924Z,96435
2023-02-14T18:32:15.294Z,96433
2023-02-14T18:35:40.404Z,96431
2023-02-14T18:39:05.656Z,96430
2023-02-14T18:42:30.890Z,96421
2023-02-14T18:45:56.196Z,96426
2023-02-14T18:49:21.402Z,96426
2023-02-14T18:52:46.616Z,96425
2023-02-14T18:56:11.857Z,96427
2023-02-14T18:59:37.125Z,96414
2023-02-14T19:03:02.398Z,96416
2023-02-14T19:06:27.718Z,96411
2023-02-14T19:09:52.974Z,96414
2023-02-14T19:13:20.053Z,96409
2023-02-14T19:16:43.576Z,96412
2023-02-14T19:20:08.828Z,96409
2023-02-14T19:23:34.085Z,96409
2023-02-14T19:26:59.309Z,96399
2023-02-14T19:30:24.621Z,96395
2023-02-14T19:33:50.271Z,96387
2023-02-14T19:37:15.134Z,96388
2023-02-14T19:40:40.391Z,96386
2023-02-14T19:44:05.629Z,96385
2023-02-14T19:47:45.793Z,96380
2023-02-14T19:50:56.189Z,96384
2023-02-14T19:54:21.434Z,96376
2023-02-14T19:57:46.696Z,96375
2023-02-14T20:01:12.062Z,96380
2023-02-14T20:04:37.232Z,96376
2023-02-14T20:08:02.471Z,96383
2023-02-14T20:11:27.724Z,96386
2023-02-14T20:14:53.027Z,96383
2023-02-14T20:18:18.241Z,96376
2023-02-14T20:21:43.474Z,96372
2023-02-14T20:25:08.741Z,96370
2023-02-14T20:28:34.007Z,96374
2023-02-14T20:31:59.341Z,96370
2023-02-14T20:35:24.942Z,96364
2023-02-14T20:38:50.188Z,96365
2023-02-14T20:42:15.424Z,96361
2023-02-14T20:45:40.621Z,96356
2023-02-14T20:49:05.819Z,96353
2023-02-14T20:52:30.965Z,96350
2023-02-14T20:55:56.138Z,96347
2023-02-14T20:59:21.351Z,96350
2023-02-14T21:02:46.511Z,96350
2023-02-14T21:06:11.688Z,96350
2023-02-14T21:09:36.851Z,96342
2023-02-14T21:13:02.001Z,96335
2023-02-14T21:16:27.176Z,96328
2023-02-14T21:19:52.352Z,96333
2023-02-14T21:23:17.527Z,96327
2023-02-14T21:26:42.678Z,96316
2023-02-14T21:30:07.899Z,96306
2023-02-14T21:33:33.048Z,96301
2023-02-14T21:36:58.237Z,96296
2023-02-14T21:40:24.492Z,96293
2023-02-14T21:43:48.581Z,96282
2023-02-14T21:47:13.727Z,96278
2023-02-14T21:50:38.892Z,96270
2023-02-14T21:54:04.037Z,96276
2023-02-14T21:57:29.285Z,96274
2023-02-14T22:00:54.434Z,96274
2023-02-14T22:04:19.591Z,96267
2023-02-14T22:07:44.754Z,96276
2023-02-14T22:11:09.940Z,96278
2023-02-14T22:14:35.131Z,96276
2023-02-14T22:18:00.281Z,96275
2023-02-14T22:21:25.448Z,96273
2023-02-14T22:24:50.609Z,96276
2023-02-14T22:28:15.760Z,96280
2023-02-14T22:31:41.096Z,96282
2023-02-14T22:35:06.097Z,96275
2023-02-14T22:38:31.245Z,96270
2023-02-14T22:41:56.427Z,96268
2023-02-14T22:45:21.587Z,96263
2023-02-14T22:48:46.775Z,96267
2023-02-14T22:52:11.941Z,96263
2023-02-14T22:55:37.082Z,96259
2023-02-14T22:59:02.265Z,96268
2023-02-14T23:02:27.449Z,96268
2023-02-14T23:05:52.628Z,96269
2023-02-14T23:09:17.744Z,96261
2023-02-14T23:12:44.701Z,96261
2023-02-14T23:16:09.886Z,96255
2023-02-14T23:19:35.037Z,96257
2023-02-14T23:23:00.230Z,96260
2023-02-14T23:26:25.409Z,96251
2023-02-14T23:29:50.618Z,96250
2023-02-14T23:33:15.772Z,96252
2023-02-14T23:36:40.945Z,96249
2023-02-14T23:40:06.137Z,96244
2023-02-14T23:43:31.308Z,96242
2023-02-14T23:46:56.489Z,96246
2023-02-14T23:50:21.651Z,96234
2023-02-14T23:53:46.800Z,96229
2023-02-14T23:57:12.052Z,96226
